Time;durP1;ratioP1;P1;durP2;ratioP2;P2;SDS_P1;SDS_P2;PMS_P1;PMS_P2;Temp;Humidity;BMP_temperature;BMP_pressure;BME280_temperature;BME280_humidity;BME280_pressure;Samples;Min_cycle;Max_cycle;Signal;HPM_P1;HPM_P2
2022/04/15 00:00:04;;;;;;;0.20;0.20;;;;;;;19.61;40.11;101992.91;5114874;28;20047;-24
2022/04/15 00:02:30;;;;;;;0.20;0.20;;;;;;;19.61;40.05;102001.22;5116891;28;20089;-24
2022/04/15 00:04:57;;;;;;;0.10;0.10;;;;;;;19.61;39.68;101995.69;5109515;28;20443;-24
2022/04/15 00:07:23;;;;;;;0.20;0.20;;;;;;;19.61;39.90;101994.84;5117783;28;20134;-24
2022/04/15 00:09:48;;;;;;;0.20;0.20;;;;;;;19.61;40.07;101995.69;5111828;28;20467;-25
2022/04/15 00:12:18;;;;;;;0.20;0.20;;;;;;;19.61;40.28;102000.38;5117144;28;20139;-24
2022/04/15 00:14:44;;;;;;;0.20;0.20;;;;;;;19.61;40.13;102009.50;5114877;28;20047;-24
2022/04/15 00:17:11;;;;;;;0.20;0.20;;;;;;;19.62;40.01;102007.56;5114683;28;20219;-24
2022/04/15 00:19:37;;;;;;;0.20;0.20;;;;;;;19.61;39.92;101998.44;5115720;28;20071;-24
2022/04/15 00:22:03;;;;;;;0.20;0.20;;;;;;;19.61;40.13;102003.97;5115525;28;20043;-24
2022/04/15 00:24:29;;;;;;;0.20;0.20;;;;;;;19.61;39.88;101989.31;5124443;27;20051;-24
2022/04/15 00:26:54;;;;;;;0.20;0.20;;;;;;;19.61;40.23;101994.84;5112052;28;20044;-24
2022/04/15 00:29:20;;;;;;;0.20;0.20;;;;;;;19.60;40.08;101999.47;5113145;28;20048;-24
2022/04/15 00:31:46;;;;;;;0.20;0.20;;;;;;;19.61;40.08;102000.38;5117384;28;20050;-23
2022/04/15 00:34:11;;;;;;;0.20;0.20;;;;;;;19.61;39.93;101997.63;5113425;28;20711;-24
2022/04/15 00:36:37;;;;;;;0.20;0.20;;;;;;;19.61;40.18;101998.44;5113491;28;20054;-24
2022/04/15 00:39:03;;;;;;;0.20;0.20;;;;;;;19.61;39.96;102003.13;5113538;28;20095;-23
2022/04/15 00:41:28;;;;;;;0.20;0.20;;;;;;;19.61;39.88;102008.66;5116564;28;20456;-24
2022/04/15 00:43:55;;;;;;;0.20;0.20;;;;;;;19.60;40.11;102002.25;5116600;28;20039;-24
2022/04/15 00:46:21;;;;;;;0.20;0.20;;;;;;;19.61;40.18;102001.22;5117983;28;20143;-24
2022/04/15 00:48:46;;;;;;;0.20;0.20;;;;;;;19.61;39.92;102005.91;5116616;28;20129;-24
2022/04/15 00:51:12;;;;;;;0.20;0.20;;;;;;;19.61;40.05;102008.66;5117998;28;20054;-24
2022/04/15 00:53:40;;;;;;;0.20;0.20;;;;;;;19.60;40.03;102007.78;5114253;28;20039;-24
2022/04/15 00:56:08;;;;;;;0.20;0.20;;;;;;;19.60;40.20;102006.94;5113160;28;20043;-24
2022/04/15 00:58:35;;;;;;;0.10;0.10;;;;;;;19.60;40.08;102005.00;5107800;28;20797;-24
2022/04/15 01:01:01;;;;;;;0.20;0.20;;;;;;;19.60;40.10;102009.69;5095264;28;20138;-24
2022/04/15 01:03:29;;;;;;;0.20;0.20;;;;;;;19.60;40.10;102009.69;5112562;28;20035;-24
2022/04/15 01:05:59;;;;;;;0.20;0.20;;;;;;;19.61;39.89;102012.25;5096129;28;20451;-24
2022/04/15 01:08:28;;;;;;;0.20;0.20;;;;;;;19.60;40.22;102018.81;5118575;28;20061;-24
2022/04/15 01:10:55;;;;;;;;;;;;;;;19.60;40.15;102018.81;5115071;28;20126;-24
2022/04/15 01:13:24;;;;;;;0.20;0.20;;;;;;;19.59;39.93;102016.31;5116994;28;20022;-24
2022/04/15 01:15:52;;;;;;;0.20;0.20;;;;;;;19.59;39.85;102013.56;5120869;28;20401;-24
2022/04/15 01:18:17;;;;;;;0.20;0.20;;;;;;;19.60;40.18;102020.75;5085239;28;20098;-24
2022/04/15 01:20:43;;;;;;;0.20;0.20;;;;;;;19.61;40.14;102025.25;5121126;28;20043;-24
2022/04/15 01:23:10;;;;;;;0.20;0.20;;;;;;;19.59;40.42;102028.22;5111740;28;20085;-24
2022/04/15 01:25:36;;;;;;;0.20;0.20;;;;;;;19.59;39.88;102030.16;5092660;28;20046;-24
2022/04/15 01:28:03;;;;;;;0.20;0.20;;;;;;;19.60;40.06;102031.81;5092467;28;20508;-24
2022/04/15 01:30:28;;;;;;;0.20;0.20;;;;;;;19.59;40.01;102030.16;5099253;28;20086;-24
2022/04/15 01:32:54;;;;;;;0.20;0.20;;;;;;;19.59;40.24;102030.97;5116385;28;20043;-24
2022/04/15 01:35:24;;;;;;;0.20;0.20;;;;;;;19.60;40.23;102026.28;5094953;27;20152;-24
2022/04/15 01:37:50;;;;;;;0.20;0.20;;;;;;;19.60;40.26;102029.03;5114766;28;20500;-24
2022/04/15 01:40:17;;;;;;;0.20;0.20;;;;;;;19.60;39.88;102027.13;5100757;28;20047;-24
2022/04/15 01:42:45;;;;;;;0.20;0.20;;;;;;;19.60;40.25;102031.81;5095913;28;20078;-24
2022/04/15 01:45:11;;;;;;;0.20;0.20;;;;;;;19.60;40.03;102040.09;5113275;28;20071;-24
2022/04/15 01:47:37;;;;;;;0.20;0.20;;;;;;;19.59;39.86;102030.97;5076448;28;20122;-24
2022/04/15 01:50:05;;;;;;;0.20;0.20;;;;;;;19.59;40.04;102044.78;5094973;28;20474;-24
2022/04/15 01:52:31;;;;;;;0.20;0.20;;;;;;;19.60;40.01;102037.34;5094274;28;20130;-24
2022/04/15 01:54:56;;;;;;;0.20;0.20;;;;;;;19.59;40.26;102042.03;5094299;28;20062;-24
2022/04/15 01:57:22;;;;;;;0.20;0.20;;;;;;;19.59;40.25;102042.03;5115692;28;20039;-24
2022/04/15 01:59:48;;;;;;;0.20;0.20;;;;;;;19.59;40.01;102046.72;5098192;28;20043;-24
2022/04/15 02:02:13;;;;;;;0.20;0.20;;;;;;;19.58;39.88;102045.88;5100790;28;20050;-24
2022/04/15 02:04:39;;;;;;;0.20;0.20;;;;;;;19.59;40.43;102046.72;5082402;28;20048;-25
2022/04/15 02:07:05;;;;;;;0.20;0.20;;;;;;;19.59;40.26;102041.19;5112954;28;20417;-24
2022/04/15 02:09:31;;;;;;;0.20;0.20;;;;;;;19.60;40.24;102051.16;5116227;28;20043;-23
2022/04/15 02:11:57;;;;;;;0.20;0.20;;;;;;;19.59;39.94;102053.09;5099460;28;20047;-24
2022/04/15 02:14:22;;;;;;;0.20;0.20;;;;;;;19.59;40.09;102047.56;5095047;28;20088;-24
2022/04/15 02:16:50;;;;;;;0.20;0.20;;;;;;;19.60;39.93;102056.69;5114148;28;20040;-24
2022/04/15 02:19:15;;;;;;;0.20;0.20;;;;;;;19.59;40.09;102053.09;5095063;28;20055;-23
2022/04/15 02:21:41;;;;;;;0.20;0.20;;;;;;;19.59;39.99;102053.09;5115866;28;20036;-24
2022/04/15 02:24:07;;;;;;;0.20;0.20;;;;;;;19.59;39.97;102058.59;5117452;28;20130;-24
2022/04/15 02:26:33;;;;;;;0.20;0.20;;;;;;;19.58;40.21;102051.41;5094962;28;20036;-24
2022/04/15 02:28:59;;;;;;;0.20;0.20;;;;;;;19.59;40.20;102061.38;5092751;28;20516;-24
2022/04/15 02:31:25;;;;;;;0.20;0.20;;;;;;;19.58;40.08;102050.59;5099428;28;20122;-24
2022/04/15 02:33:51;;;;;;;0.20;0.20;;;;;;;19.58;39.99;102054.19;5095097;28;20040;-25
2022/04/15 02:36:17;;;;;;;0.20;0.20;;;;;;;19.59;40.25;102057.78;5113003;28;20071;-24
2022/04/15 02:38:43;;;;;;;0.20;0.20;;;;;;;19.58;39.82;102056.94;5101528;28;20074;-24
2022/04/15 02:41:09;;;;;;;0.20;0.20;;;;;;;19.59;40.02;102046.72;5092487;28;20051;-24
2022/04/15 02:43:36;;;;;;;0.20;0.20;;;;;;;19.58;40.27;102062.47;5116028;28;20118;-24
2022/04/15 02:46:03;;;;;;;0.10;0.10;;;;;;;19.58;40.19;102054.19;5115863;28;20085;-24
2022/04/15 02:48:29;;;;;;;0.20;0.20;;;;;;;19.58;40.16;102054.19;5121882;27;20481;-24
2022/04/15 02:50:55;;;;;;;0.20;0.20;;;;;;;19.58;40.07;102056.13;5114389;28;20091;-24
2022/04/15 02:53:22;;;;;;;0.20;0.20;;;;;;;19.58;40.04;102058.88;5100044;28;20036;-24
2022/04/15 02:55:48;;;;;;;0.20;0.20;;;;;;;19.60;40.05;102056.69;5118315;28;20067;-24
2022/04/15 02:58:13;;;;;;;0.20;0.20;;;;;;;19.58;40.30;102062.47;5116776;28;20035;-23
2022/04/15 03:00:39;;;;;;;0.20;0.20;;;;;;;19.58;40.37;102059.72;5115569;28;20418;-24
2022/04/15 03:03:05;;;;;;;0.20;0.20;;;;;;;19.59;40.40;102066.91;5117651;28;20364;-24
2022/04/15 03:05:31;;;;;;;0.20;0.20;;;;;;;19.58;40.15;102061.63;5117891;28;20052;-24
2022/04/15 03:07:57;;;;;;;0.20;0.20;;;;;;;19.58;40.04;102065.22;5116970;28;20108;-24
2022/04/15 03:10:22;;;;;;;0.20;0.20;;;;;;;19.57;40.42;102060.81;5115008;28;20044;-24
2022/04/15 03:12:48;;;;;;;0.20;0.20;;;;;;;19.58;40.01;102065.22;5114898;28;20551;-24
2022/04/15 03:15:14;;;;;;;0.20;0.20;;;;;;;19.58;40.07;102059.72;5113775;28;20036;-24
2022/04/15 03:17:39;;;;;;;0.20;0.20;;;;;;;19.58;40.37;102061.63;5097430;28;20501;-25
2022/04/15 03:20:06;;;;;;;0.20;0.20;;;;;;;19.58;40.18;102070.75;5115528;28;20401;-25
2022/04/15 03:22:41;;;;;;;0.20;0.20;;;;;;;19.58;40.10;102068.00;5113599;28;20120;-24
2022/04/15 03:25:08;;;;;;;0.20;0.20;;;;;;;19.58;40.20;102065.22;5096535;28;20225;-24
2022/04/15 03:27:34;;;;;;;0.20;0.20;;;;;;;19.59;40.01;102069.66;5116400;28;20108;-24
2022/04/15 03:30:00;;;;;;;0.20;0.20;;;;;;;19.58;40.18;102068.00;5094663;28;20044;-25
2022/04/15 03:32:26;;;;;;;0.20;0.20;;;;;;;19.58;40.36;102067.16;5119233;28;20097;-24
2022/04/15 03:34:52;;;;;;;0.20;0.20;;;;;;;19.57;40.32;102063.56;5098847;28;20461;-24
2022/04/15 03:37:18;;;;;;;0.20;0.20;;;;;;;19.58;39.93;102068.00;5117407;28;20129;-24
2022/04/15 03:39:43;;;;;;;0.20;0.20;;;;;;;19.58;40.38;102068.00;5118303;28;20039;-24
2022/04/15 03:42:09;;;;;;;0.20;0.20;;;;;;;19.58;39.74;102068.00;5117065;28;20053;-24
2022/04/15 03:44:36;;;;;;;0.20;0.20;;;;;;;19.57;40.36;102063.56;5098867;28;20067;-24
2022/04/15 03:47:02;;;;;;;0.20;0.20;;;;;;;19.58;40.12;102069.94;5117208;28;20116;-25
2022/04/15 03:49:28;;;;;;;0.20;0.20;;;;;;;19.58;40.00;102067.16;5115760;28;20136;-24
2022/04/15 03:51:53;;;;;;;0.20;0.20;;;;;;;19.58;40.35;102064.41;5119856;28;20051;-24
2022/04/15 03:54:19;;;;;;;0.20;0.20;;;;;;;19.58;40.16;102068.00;5119231;28;20413;-25
2022/04/15 03:56:46;;;;;;;0.20;0.20;;;;;;;19.56;40.34;102067.44;5113443;28;20040;-24
2022/04/15 03:59:13;;;;;;;0.20;0.20;;;;;;;19.58;40.26;102072.69;5120549;27;20128;-24
2022/04/15 04:01:38;;;;;;;0.20;0.20;;;;;;;19.59;40.27;102077.13;5114068;28;20142;-24
2022/04/15 04:04:04;;;;;;;0.20;0.20;;;;;;;19.59;40.10;102079.88;5116708;28;20048;-24
2022/04/15 04:06:30;;;;;;;0.20;0.20;;;;;;;19.56;40.37;102067.44;5115109;28;20050;-24
2022/04/15 04:08:55;;;;;;;0.20;0.20;;;;;;;19.57;40.19;102076.56;5115953;28;20043;-24
2022/04/15 04:11:21;;;;;;;0.20;0.20;;;;;;;19.57;40.07;102076.56;5114903;28;20061;-24
2022/04/15 04:13:47;;;;;;;0.20;0.20;;;;;;;19.58;40.37;102075.44;5108339;28;20039;-24
2022/04/15 04:16:13;;;;;;;0.20;0.20;;;;;;;19.58;40.32;102073.53;5093660;28;20066;-24
2022/04/15 04:18:40;;;;;;;0.20;0.20;;;;;;;19.56;40.45;102067.44;5099485;28;20035;-25
2022/04/15 04:21:06;;;;;;;0.20;0.20;;;;;;;19.57;40.37;102074.63;5112406;28;20183;-23
2022/04/15 04:23:32;;;;;;;0.10;0.10;;;;;;;19.57;40.05;102082.09;5112889;28;20040;-23
2022/04/15 04:25:57;;;;;;;0.20;0.20;;;;;;;19.58;40.26;102079.06;5114498;28;20071;-24
2022/04/15 04:28:23;;;;;;;0.20;0.20;;;;;;;19.56;40.60;102081.25;5112666;28;20057;-24
2022/04/15 04:30:49;;;;;;;0.20;0.20;;;;;;;19.57;40.16;102082.09;5111726;28;20044;-25
2022/04/15 04:33:14;;;;;;;0.20;0.20;;;;;;;19.58;40.25;102079.06;5097750;28;20045;-24
2022/04/15 04:35:40;;;;;;;0.20;0.20;;;;;;;19.58;40.15;102080.97;5113981;28;20478;-24
2022/04/15 04:38:06;;;;;;;0.20;0.20;;;;;;;19.58;40.00;102084.56;5115952;28;20403;-24
2022/04/15 04:40:33;;;;;;;0.20;0.20;;;;;;;19.57;40.38;102095.91;5119329;28;20043;-23
2022/04/15 04:42:59;;;;;;;0.20;0.20;;;;;;;19.57;40.24;102087.59;5113701;28;20087;-24
2022/04/15 04:45:26;;;;;;;0.20;0.20;;;;;;;19.56;40.38;102092.31;5118458;28;20043;-25
2022/04/15 04:47:52;;;;;;;0.20;0.20;;;;;;;19.57;40.03;102095.91;5116447;28;20480;-24
2022/04/15 04:50:18;;;;;;;0.20;0.20;;;;;;;19.57;40.43;102101.44;5118011;28;20489;-24
2022/04/15 04:52:46;;;;;;;0.20;0.20;;;;;;;19.56;40.44;102103.34;5100132;28;20043;-24
2022/04/15 04:55:13;;;;;;;0.20;0.20;;;;;;;19.58;40.13;102108.63;5096579;28;20132;-24
2022/04/15 04:57:39;;;;;;;0.20;0.20;;;;;;;19.57;40.30;102118.00;5099016;28;20084;-24
2022/04/15 05:00:07;;;;;;;0.20;0.20;;;;;;;19.56;40.39;102111.66;5101073;28;20173;-24
2022/04/15 05:02:32;;;;;;;0.20;0.20;;;;;;;19.56;40.20;102117.16;5115611;28;20471;-24
2022/04/15 05:04:58;;;;;;;0.20;0.20;;;;;;;19.58;40.12;102122.44;5111478;28;20043;-24
2022/04/15 05:07:24;;;;;;;0.20;0.20;;;;;;;19.56;40.19;102125.47;5117420;28;20057;-24
2022/04/15 05:09:51;;;;;;;0.20;0.20;;;;;;;19.55;40.40;102127.34;5119367;28;20043;-25
2022/04/15 05:12:17;;;;;;;0.20;0.20;;;;;;;19.55;40.08;102135.66;5112761;28;20137;-24
2022/04/15 05:14:43;;;;;;;0.20;0.20;;;;;;;19.57;40.29;102137.34;5096159;28;20051;-24
2022/04/15 05:17:09;;;;;;;0.20;0.20;;;;;;;19.55;40.40;102135.66;5115403;28;20043;-24
2022/04/15 05:19:41;;;;;;;0.20;0.20;;;;;;;19.56;40.25;102144.81;5115475;28;20085;-25
2022/04/15 05:22:08;;;;;;;0.20;0.20;;;;;;;19.55;40.52;102146.69;5112387;28;20101;-25
2022/04/15 05:24:33;;;;;;;0.20;0.20;;;;;;;19.56;40.26;102155.84;5114719;28;20652;-24
2022/04/15 05:26:59;;;;;;;0.20;0.20;;;;;;;19.55;40.22;102152.22;5116154;28;20051;-24
2022/04/15 05:29:24;;;;;;;0.20;0.20;;;;;;;19.56;40.23;102164.16;5100372;28;20042;-23
2022/04/15 05:31:50;;;;;;;0.20;0.20;;;;;;;19.55;40.57;102160.50;5112198;28;20050;-24
2022/04/15 05:34:16;;;;;;;0.20;0.20;;;;;;;19.55;40.23;102176.25;5114954;28;20142;-24
2022/04/15 05:36:42;;;;;;;0.20;0.20;;;;;;;19.55;40.21;102173.50;5116026;28;20493;-24
2022/04/15 05:39:07;;;;;;;0.20;0.20;;;;;;;19.55;40.45;102176.25;5120211;28;20048;-24
2022/04/15 05:41:33;;;;;;;0.20;0.20;;;;;;;19.55;40.16;102179.84;5116929;28;20067;-25
2022/04/15 05:43:59;;;;;;;0.20;0.20;;;;;;;19.55;40.37;102182.63;5116638;28;20043;-24
2022/04/15 05:46:30;;;;;;;0.20;0.20;;;;;;;19.55;40.35;102185.38;5114629;28;20057;-24
2022/04/15 05:48:56;;;;;;;0.20;0.20;;;;;;;19.55;40.53;102190.91;5112471;28;20046;-24
2022/04/15 05:51:21;;;;;;;0.20;0.20;;;;;;;19.55;40.21;102192.84;5097094;28;20051;-24
2022/04/15 05:53:47;;;;;;;0.20;0.20;;;;;;;19.57;40.43;102198.13;5117592;28;20074;-24
2022/04/15 05:56:13;;;;;;;0.20;0.20;;;;;;;19.55;40.37;102199.19;5112382;28;20096;-24
2022/04/15 05:58:40;;;;;;;0.20;0.20;;;;;;;19.55;40.35;102201.97;5110665;28;20055;-24
2022/04/15 06:01:09;;;;;;;0.20;0.20;;;;;;;19.55;40.42;102212.19;5114908;28;20131;-25
2022/04/15 06:03:35;;;;;;;0.20;0.20;;;;;;;19.54;40.22;102211.34;5112049;28;20130;-24
2022/04/15 06:06:01;;;;;;;0.20;0.20;;;;;;;19.55;40.31;102210.25;5095405;28;20082;-24
2022/04/15 06:08:27;;;;;;;0.20;0.20;;;;;;;19.56;40.14;102216.66;5098378;28;20040;-24
2022/04/15 06:10:53;;;;;;;0.20;0.20;;;;;;;19.55;40.34;102226.84;5115374;28;20040;-24
2022/04/15 06:13:22;;;;;;;0.20;0.20;;;;;;;19.55;40.27;102232.34;5117800;28;21313;-24
2022/04/15 06:15:53;;;;;;;0.20;0.20;;;;;;;19.54;40.25;102230.69;5092678;28;20467;-24
2022/04/15 06:18:20;;;;;;;0.20;0.20;;;;;;;19.55;40.50;102234.28;5114393;28;20092;-24
2022/04/15 06:20:47;;;;;;;0.20;0.20;;;;;;;19.55;40.16;102234.28;5091831;28;20498;-24
2022/04/15 06:23:13;;;;;;;0.20;0.20;;;;;;;19.55;40.16;102243.41;5111724;28;20082;-24
2022/04/15 06:25:39;;;;;;;0.20;0.20;;;;;;;19.55;40.46;102242.56;5116693;28;20079;-24
2022/04/15 06:28:07;;;;;;;0.20;0.20;;;;;;;19.55;40.36;102253.63;5103071;28;20043;-24
2022/04/15 06:30:32;;;;;;;0.20;0.20;;;;;;;19.55;40.21;102250.88;5121203;28;20131;-24
2022/04/15 06:32:58;;;;;;;0.20;0.20;;;;;;;19.55;40.17;102250.88;5098205;28;20050;-24
2022/04/15 06:35:24;;;;;;;0.20;0.20;;;;;;;19.55;40.47;102262.75;5116494;28;20410;-24
2022/04/15 06:37:49;;;;;;;0.20;0.20;;;;;;;19.54;40.12;102263.84;5116579;28;20047;-24
2022/04/15 06:40:15;;;;;;;0.20;0.20;;;;;;;19.55;40.22;102271.03;5101845;28;20075;-24
2022/04/15 06:42:41;;;;;;;0.20;0.20;;;;;;;19.55;40.19;102265.53;5117080;28;20050;-23
2022/04/15 06:45:07;;;;;;;0.30;0.30;;;;;;;19.55;40.39;102265.53;5114335;28;20058;-23
2022/04/15 06:47:33;;;;;;;0.20;0.20;;;;;;;19.55;40.55;102279.34;5115417;28;20075;-24
2022/04/15 06:49:58;;;;;;;0.20;0.20;;;;;;;19.55;40.25;102282.09;5113517;28;20050;-24
2022/04/15 06:52:24;;;;;;;0.20;0.20;;;;;;;19.55;40.29;102282.09;5118988;28;20039;-24
2022/04/15 06:54:50;;;;;;;0.20;0.20;;;;;;;19.55;40.26;102281.25;5117073;28;20403;-25
2022/04/15 06:57:15;;;;;;;0.20;0.20;;;;;;;19.56;40.25;102291.25;5120342;28;20069;-24
2022/04/15 06:59:42;;;;;;;0.20;0.20;;;;;;;19.55;40.16;102292.31;5106249;28;20039;-24
2022/04/15 07:02:07;;;;;;;0.20;0.20;;;;;;;19.54;40.54;102288.72;5119135;28;20481;-24
2022/04/15 07:04:34;;;;;;;0.20;0.20;;;;;;;19.55;40.46;102295.91;5114498;28;20040;-24
2022/04/15 07:07:00;;;;;;;0.20;0.20;;;;;;;19.55;40.19;102300.59;5116015;28;20079;-24
2022/04/15 07:09:25;;;;;;;0.20;0.20;;;;;;;19.54;40.25;102297.00;5100984;28;20050;-25
2022/04/15 07:11:51;;;;;;;0.20;0.20;;;;;;;19.55;40.16;102297.84;5117492;28;20078;-23
2022/04/15 07:14:17;;;;;;;0.20;0.20;;;;;;;19.55;40.46;102301.44;5113188;28;20150;-23
2022/04/15 07:16:43;;;;;;;0.20;0.20;;;;;;;19.55;40.25;102300.59;5114007;28;20050;-23
2022/04/15 07:19:09;;;;;;;0.20;0.20;;;;;;;19.55;40.34;102301.44;5099329;28;20078;-25
2022/04/15 07:21:35;;;;;;;0.20;0.20;;;;;;;19.55;40.50;102297.84;5099195;28;20051;-24
2022/04/15 07:24:01;;;;;;;0.13;0.13;;;;;;;19.54;40.51;102305.31;5115222;28;20067;-24
2022/04/15 07:26:27;;;;;;;0.20;0.20;;;;;;;19.55;40.44;102303.38;5100202;28;20090;-25
2022/04/15 07:28:52;;;;;;;0.20;0.20;;;;;;;19.55;40.30;102314.44;5099765;28;20040;-24
2022/04/15 07:31:18;;;;;;;0.20;0.20;;;;;;;19.54;40.64;102315.53;5113701;28;20100;-24
2022/04/15 07:33:46;;;;;;;0.20;0.20;;;;;;;19.54;40.39;102319.13;5119102;28;20130;-25
2022/04/15 07:36:46;;;;;;;0.20;0.20;;;;;;;19.54;40.24;102323.81;5114155;28;20553;-24
2022/04/15 07:38:58;;;;;;;0.20;0.20;;;;;;;19.55;40.60;102322.72;5098331;28;20075;-24
2022/04/15 07:41:24;;;;;;;0.20;0.20;;;;;;;19.55;40.52;102331.00;5117100;28;20089;-24
2022/04/15 07:43:50;;;;;;;0.20;0.20;;;;;;;19.53;40.48;102325.75;5115547;28;20402;-25
2022/04/15 07:46:16;;;;;;;0.20;0.20;;;;;;;19.54;40.27;102335.69;5119082;28;20051;-24
2022/04/15 07:48:42;;;;;;;0.20;0.20;;;;;;;19.54;40.49;102329.34;5114746;28;20039;-24
2022/04/15 07:51:09;;;;;;;0.20;0.20;;;;;;;19.55;40.44;102333.75;5117000;28;20066;-25
2022/04/15 07:53:34;;;;;;;0.20;0.20;;;;;;;19.55;40.39;102331.00;5117987;28;20086;-24
2022/04/15 07:56:01;;;;;;;0.20;0.20;;;;;;;19.54;40.33;102335.69;5118076;28;20050;-24
2022/04/15 07:58:27;;;;;;;0.20;0.20;;;;;;;19.55;40.42;102328.25;5115951;28;20047;-24
2022/04/15 08:00:53;;;;;;;0.20;0.20;;;;;;;19.54;40.22;102323.81;5117060;28;20050;-24
2022/04/15 08:03:20;;;;;;;0.20;0.20;;;;;;;19.54;40.56;102324.66;5098429;28;20050;-24
2022/04/15 08:05:47;;;;;;;0.20;0.20;;;;;;;19.54;40.41;102329.34;5119714;28;20051;-24
2022/04/15 08:08:13;;;;;;;0.20;0.20;;;;;;;19.54;40.55;102324.66;5122043;28;20075;-24
2022/04/15 08:10:38;;;;;;;0.20;0.20;;;;;;;19.54;40.49;102324.66;5118120;28;20048;-24
2022/04/15 08:13:04;;;;;;;0.20;0.20;;;;;;;19.53;40.49;102331.25;5116007;28;20471;-24
2022/04/15 08:15:30;;;;;;;0.20;0.20;;;;;;;19.55;40.48;102337.38;5121374;28;20051;-24
2022/04/15 08:17:56;;;;;;;0.20;0.20;;;;;;;19.54;40.35;102337.63;5112156;28;20094;-24
2022/04/15 08:20:22;;;;;;;0.20;0.20;;;;;;;19.54;40.60;102334.84;5114385;28;20043;-25
2022/04/15 08:22:47;;;;;;;0.20;0.20;;;;;;;19.54;40.57;102334.84;5115896;28;20130;-24
2022/04/15 08:25:14;;;;;;;0.20;0.20;;;;;;;19.54;40.57;102326.56;5118199;28;20043;-24
2022/04/15 08:27:39;;;;;;;0.20;0.20;;;;;;;19.54;40.30;102329.34;5112966;28;20082;-24
2022/04/15 08:30:06;;;;;;;0.20;0.20;;;;;;;19.54;40.21;102332.09;5112139;28;20036;-24
2022/04/15 08:32:34;;;;;;;0.20;0.20;;;;;;;19.54;40.58;102337.63;5108185;28;20504;-24
2022/04/15 08:35:07;;;;;;;0.20;0.20;;;;;;;19.54;40.29;102330.16;5114754;28;20044;-24
2022/04/15 08:37:33;;;;;;;0.20;0.20;;;;;;;19.54;40.19;102332.09;5114638;28;20126;-24
2022/04/15 08:40:00;;;;;;;0.20;0.20;;;;;;;19.54;40.50;102343.16;5112630;28;20058;-24
2022/04/15 08:42:26;;;;;;;0.20;0.20;;;;;;;19.53;40.21;102345.06;5116172;28;20134;-25
2022/04/15 08:44:52;;;;;;;0.20;0.20;;;;;;;19.54;40.57;102343.16;5114304;28;20082;-24
2022/04/15 08:47:18;;;;;;;0.20;0.20;;;;;;;19.54;40.37;102341.22;5094884;28;20079;-24
2022/04/15 08:49:45;;;;;;;0.20;0.20;;;;;;;19.54;40.62;102346.75;5096401;28;20069;-24
2022/04/15 08:52:12;;;;;;;0.20;0.20;;;;;;;19.53;40.54;102347.84;5079800;28;20543;-24
2022/04/15 08:54:38;;;;;;;0.10;0.10;;;;;;;19.54;40.47;102354.19;5099246;28;20446;-24
2022/04/15 08:57:05;;;;;;;0.20;0.20;;;;;;;19.53;40.35;102353.38;5098168;28;20294;-23
2022/04/15 08:59:31;;;;;;;0.20;0.20;;;;;;;19.54;40.21;102357.81;5115376;28;20098;-24
2022/04/15 09:01:57;;;;;;;0.20;0.20;;;;;;;19.54;40.53;102362.50;5101211;28;20039;-24
2022/04/15 09:04:23;;;;;;;0.20;0.20;;;;;;;19.53;40.47;102369.13;5097443;28;20055;-24
2022/04/15 09:06:58;;;;;;;0.20;0.20;;;;;;;19.53;40.52;102361.66;5112615;28;20057;-24
2022/04/15 09:09:29;;;;;;;0.20;0.20;;;;;;;19.54;40.30;102371.63;5099658;28;20074;-24
2022/04/15 09:11:56;;;;;;;0.20;0.20;;;;;;;19.54;40.29;102371.63;5095913;28;20093;-24
2022/04/15 09:14:22;;;;;;;0.20;0.20;;;;;;;19.54;40.66;102373.53;5093969;28;20093;-24
2022/04/15 09:16:48;;;;;;;0.20;0.20;;;;;;;19.54;40.32;102373.53;5095709;28;20044;-24
2022/04/15 09:19:15;;;;;;;0.20;0.20;;;;;;;19.55;40.59;102378.81;5110324;28;20093;-24
2022/04/15 09:21:49;;;;;;;0.20;0.20;;;;;;;19.54;40.44;102388.19;5094751;28;20079;-24
2022/04/15 09:24:15;;;;;;;0.20;0.20;;;;;;;19.53;40.53;102377.41;5112629;28;20087;-24
2022/04/15 09:26:44;;;;;;;0.20;0.20;;;;;;;19.54;40.38;102385.44;5112040;28;20044;-24
2022/04/15 09:29:11;;;;;;;0.20;0.20;;;;;;;19.53;40.53;102372.72;5109653;28;20134;-24
2022/04/15 09:31:37;;;;;;;0.30;0.30;;;;;;;19.54;40.29;102379.91;5117103;28;20071;-24
2022/04/15 09:34:06;;;;;;;0.20;0.20;;;;;;;19.53;40.57;102386.53;5114149;28;20046;-24
2022/04/15 09:36:33;;;;;;;0.20;0.20;;;;;;;19.54;40.64;102384.59;5114218;28;20089;-25
2022/04/15 09:39:04;;;;;;;0.20;0.20;;;;;;;19.54;40.33;102390.13;5101351;28;20175;-24
2022/04/15 09:41:29;;;;;;;0.20;0.20;;;;;;;19.53;40.31;102382.94;5098195;28;20540;-24
2022/04/15 09:43:58;;;;;;;0.20;0.20;;;;;;;19.52;40.53;102393.16;5117495;28;20495;-24
2022/04/15 09:46:26;;;;;;;0.20;0.20;;;;;;;19.53;40.52;102386.53;5118082;28;20527;-24
2022/04/15 09:49:08;;;;;;;0.20;0.20;;;;;;;19.53;40.39;102386.53;5116837;28;20123;-24
2022/04/15 09:51:44;;;;;;;0.20;0.20;;;;;;;19.52;40.63;102389.56;5114407;28;20128;-24
2022/04/15 09:54:19;;;;;;;0.10;0.10;;;;;;;19.53;40.31;102389.28;5112619;28;20078;-24
2022/04/15 09:56:46;;;;;;;0.20;0.20;;;;;;;19.51;40.32;102385.91;5097738;27;20087;-24
2022/04/15 09:59:15;;;;;;;0.20;0.20;;;;;;;19.52;40.50;102387.63;5096035;28;20134;-24
2022/04/15 10:01:45;;;;;;;0.20;0.20;;;;;;;19.53;40.39;102382.94;5097298;28;20139;-24
2022/04/15 10:04:12;;;;;;;0.20;0.20;;;;;;;19.53;40.52;102382.94;5096593;28;20043;-24
2022/04/15 10:06:40;;;;;;;0.20;0.20;;;;;;;19.53;40.25;102386.53;5112234;28;20075;-24
2022/04/15 10:09:10;;;;;;;0.20;0.20;;;;;;;19.52;40.37;102382.09;5113940;28;20074;-24
2022/04/15 10:11:38;;;;;;;0.20;0.20;;;;;;;19.53;40.63;102382.94;5100415;28;20075;-25
2022/04/15 10:14:03;;;;;;;0.20;0.20;;;;;;;19.52;40.30;102384.84;5113369;28;20130;-24
2022/04/15 10:16:32;;;;;;;0.20;0.20;;;;;;;19.53;40.59;102391.22;5110666;28;20127;-24
2022/04/15 10:18:59;;;;;;;;;;;;;;;19.52;40.66;102390.38;5097000;28;20475;-24
2022/04/15 10:21:32;;;;;;;0.20;0.20;;;;;;;19.52;40.58;102393.16;5093273;28;19920;-25
2022/04/15 10:24:00;;;;;;;0.20;0.20;;;;;;;19.54;40.38;102387.38;5111715;28;20094;-25
2022/04/15 10:26:28;;;;;;;0.20;0.20;;;;;;;19.54;40.28;102384.59;5111463;28;20075;-25
2022/04/15 10:28:54;;;;;;;0.20;0.20;;;;;;;19.53;40.39;102386.53;5091626;28;20035;-24
2022/04/15 10:31:19;;;;;;;0.20;0.20;;;;;;;19.53;40.61;102386.53;5112786;28;20097;-24
2022/04/15 10:33:49;;;;;;;0.20;0.20;;;;;;;19.53;40.64;102381.00;5111288;28;20043;-24
2022/04/15 10:36:17;;;;;;;0.20;0.20;;;;;;;19.53;40.54;102381.00;5094537;28;20078;-24
2022/04/15 10:44:35;;;;;;;0.20;0.20;;;;;;;19.52;40.50;102378.50;5160551;27;20132;-24
2022/04/15 10:50:03;;;;;;;0.20;0.20;;;;;;;19.53;40.54;102385.69;5177595;27;20637;-25
2022/04/15 10:52:30;;;;;;;0.20;0.20;;;;;;;19.54;40.20;102387.38;5149279;27;20066;-25
2022/04/15 10:55:06;;;;;;;0.20;0.20;;;;;;;19.53;40.41;102394.81;5147990;27;20473;-24
2022/04/15 10:57:35;;;;;;;0.20;0.20;;;;;;;19.54;40.32;102401.19;5151413;27;20530;-24
2022/04/15 11:02:53;;;;;;;0.20;0.20;;;;;;;19.53;40.31;102392.06;5151949;27;20082;-24
2022/04/15 11:05:45;;;;;;;0.20;0.20;;;;;;;19.53;40.50;102394.81;5168727;27;20042;-24
2022/04/15 11:08:12;;;;;;;0.20;0.20;;;;;;;19.53;40.52;102385.69;5152974;27;20088;-24
2022/04/15 11:16:19;;;;;;;0.20;0.20;;;;;;;19.53;40.34;102388.47;5170678;27;20586;-24
2022/04/15 11:18:53;;;;;;;0.20;0.20;;;;;;;19.53;40.58;102383.75;5144172;27;20127;-24
2022/04/15 11:21:30;;;;;;;0.20;0.20;;;;;;;19.53;40.71;102381.00;5135592;27;20050;-24
2022/04/15 11:23:58;;;;;;;0.20;0.20;;;;;;;19.53;40.49;102386.53;5150724;27;20340;-24
2022/04/15 11:26:25;;;;;;;0.20;0.20;;;;;;;19.53;40.35;102386.53;5154637;27;20443;-24
2022/04/15 11:28:53;;;;;;;0.10;0.10;;;;;;;19.53;40.45;102396.75;5155286;27;20496;-24
2022/04/15 11:31:24;;;;;;;0.20;0.20;;;;;;;19.52;40.33;102387.63;5119607;27;20466;-24
2022/04/15 11:33:51;;;;;;;0.20;0.20;;;;;;;19.53;40.37;102385.69;5139685;27;20130;-24
2022/04/15 11:36:18;;;;;;;0.20;0.20;;;;;;;19.52;40.54;102387.63;5126290;27;20397;-24
2022/04/15 11:38:46;;;;;;;0.20;0.20;;;;;;;19.52;40.33;102393.16;5114882;27;20078;-24
2022/04/15 11:41:20;;;;;;;0.10;0.10;;;;;;;19.54;40.48;102390.13;5111754;28;20078;-24